Terminal Aerodrome Forecast
Issued by NWS

Home | Current Version | Previous Version | Text Only | Print | Product List | Glossary On
Versions: 1 2 3 4 5 6 7 8 9 10 11 12 13 14 15 16 17 18 19 20 21
666
FTUS45 KRIW 010533
TAFLND
TAF
KLND 010533Z 0106/0206 VRB05KT P6SM SCT025 OVC040
      TEMPO 0106/0109 BKN025
     FM011100 VRB04KT P6SM VCFG SCT002 BKN040
     FM011600 VRB04KT P6SM SCT040 SCT070
     FM020200 24005KT P6SM SCT250=

USA.gov is the U.S. government's official web portal to all federal, state and local government web resources and services.